sensor_id;sensor_type;location;lat;lon;timestamp;P1;durP1;ratioP1;P2;durP2;ratioP2
71600;SDS011;59446;52.192;4.628;2023-03-29T00:01:30;0.67;;;0.60;;
71600;SDS011;59446;52.192;4.628;2023-03-29T00:03:56;1.20;;;0.50;;
71600;SDS011;59446;52.192;4.628;2023-03-29T00:06:22;0.80;;;0.70;;
71600;SDS011;59446;52.192;4.628;2023-03-29T00:08:48;1.00;;;0.52;;
71600;SDS011;59446;52.192;4.628;2023-03-29T00:11:28;0.70;;;0.50;;
71600;SDS011;59446;52.192;4.628;2023-03-29T00:13:54;1.70;;;0.70;;
71600;SDS011;59446;52.192;4.628;2023-03-29T00:16:19;1.10;;;0.50;;
71600;SDS011;59446;52.192;4.628;2023-03-29T00:18:45;1.30;;;0.80;;
71600;SDS011;59446;52.192;4.628;2023-03-29T00:21:10;1.27;;;0.77;;
71600;SDS011;59446;52.192;4.628;2023-03-29T00:23:36;1.00;;;0.60;;
71600;SDS011;59446;52.192;4.628;2023-03-29T00:26:01;0.57;;;0.50;;
71600;SDS011;59446;52.192;4.628;2023-03-29T00:28:27;4.13;;;0.90;;
71600;SDS011;59446;52.192;4.628;2023-03-29T00:30:52;1.20;;;0.60;;
71600;SDS011;59446;52.192;4.628;2023-03-29T00:33:18;1.30;;;0.60;;
71600;SDS011;59446;52.192;4.628;2023-03-29T00:35:45;0.75;;;0.65;;
71600;SDS011;59446;52.192;4.628;2023-03-29T00:38:12;3.23;;;0.60;;
71600;SDS011;59446;52.192;4.628;2023-03-29T00:40:42;1.20;;;0.95;;
71600;SDS011;59446;52.192;4.628;2023-03-29T00:43:12;0.85;;;0.57;;
71600;SDS011;59446;52.192;4.628;2023-03-29T00:45:38;1.42;;;0.60;;
71600;SDS011;59446;52.192;4.628;2023-03-29T00:48:05;1.03;;;0.60;;
71600;SDS011;59446;52.192;4.628;2023-03-29T00:56:05;0.82;;;0.50;;
71600;SDS011;59446;52.192;4.628;2023-03-29T00:58:41;0.65;;;0.50;;
71600;SDS011;59446;52.192;4.628;2023-03-29T01:01:15;1.25;;;0.80;;
71600;SDS011;59446;52.192;4.628;2023-03-29T01:03:49;1.00;;;0.53;;
71600;SDS011;59446;52.192;4.628;2023-03-29T01:06:19;0.88;;;0.60;;
71600;SDS011;59446;52.192;4.628;2023-03-29T01:08:52;1.50;;;0.60;;
71600;SDS011;59446;52.192;4.628;2023-03-29T01:11:29;0.80;;;0.50;;
71600;SDS011;59446;52.192;4.628;2023-03-29T01:14:05;1.15;;;0.50;;
71600;SDS011;59446;52.192;4.628;2023-03-29T01:16:34;0.80;;;0.50;;
71600;SDS011;59446;52.192;4.628;2023-03-29T01:19:04;1.27;;;0.80;;
71600;SDS011;59446;52.192;4.628;2023-03-29T01:24:10;1.25;;;0.70;;
71600;SDS011;59446;52.192;4.628;2023-03-29T01:26:59;0.77;;;0.60;;
71600;SDS011;59446;52.192;4.628;2023-03-29T01:29:33;0.50;;;0.50;;
71600;SDS011;59446;52.192;4.628;2023-03-29T01:34:57;0.57;;;0.50;;
71600;SDS011;59446;52.192;4.628;2023-03-29T01:37:34;0.73;;;0.50;;
71600;SDS011;59446;52.192;4.628;2023-03-29T01:40:02;1.05;;;0.82;;
71600;SDS011;59446;52.192;4.628;2023-03-29T01:42:31;0.60;;;0.52;;
71600;SDS011;59446;52.192;4.628;2023-03-29T01:48:32;1.30;;;0.80;;
71600;SDS011;59446;52.192;4.628;2023-03-29T01:51:23;1.73;;;0.60;;
71600;SDS011;59446;52.192;4.628;2023-03-29T01:53:59;1.17;;;0.50;;
71600;SDS011;59446;52.192;4.628;2023-03-29T01:56:29;0.80;;;0.53;;
71600;SDS011;59446;52.192;4.628;2023-03-29T01:59:01;1.20;;;0.57;;
71600;SDS011;59446;52.192;4.628;2023-03-29T02:01:32;0.40;;;0.40;;
71600;SDS011;59446;52.192;4.628;2023-03-29T02:04:07;0.93;;;0.50;;
71600;SDS011;59446;52.192;4.628;2023-03-29T02:06:37;2.35;;;0.60;;
71600;SDS011;59446;52.192;4.628;2023-03-29T02:09:04;1.60;;;0.70;;
71600;SDS011;59446;52.192;4.628;2023-03-29T02:11:31;0.50;;;0.50;;
71600;SDS011;59446;52.192;4.628;2023-03-29T02:13:58;0.70;;;0.55;;
71600;SDS011;59446;52.192;4.628;2023-03-29T02:16:24;0.50;;;0.50;;
71600;SDS011;59446;52.192;4.628;2023-03-29T02:18:50;0.43;;;0.43;;
71600;SDS011;59446;52.192;4.628;2023-03-29T02:21:29;1.00;;;0.70;;
71600;SDS011;59446;52.192;4.628;2023-03-29T02:24:00;0.70;;;0.60;;
71600;SDS011;59446;52.192;4.628;2023-03-29T02:26:30;1.40;;;0.50;;
71600;SDS011;59446;52.192;4.628;2023-03-29T02:28:56;2.33;;;0.50;;
71600;SDS011;59446;52.192;4.628;2023-03-29T02:34:00;0.70;;;0.40;;
71600;SDS011;59446;52.192;4.628;2023-03-29T02:36:42;0.75;;;0.60;;
71600;SDS011;59446;52.192;4.628;2023-03-29T02:39:10;1.38;;;0.80;;
71600;SDS011;59446;52.192;4.628;2023-03-29T02:41:39;0.87;;;0.77;;
71600;SDS011;59446;52.192;4.628;2023-03-29T02:44:08;0.70;;;0.50;;
71600;SDS011;59446;52.192;4.628;2023-03-29T02:46:38;1.05;;;0.80;;
71600;SDS011;59446;52.192;4.628;2023-03-29T02:49:06;0.50;;;0.50;;
71600;SDS011;59446;52.192;4.628;2023-03-29T02:51:34;2.10;;;0.70;;
71600;SDS011;59446;52.192;4.628;2023-03-29T02:54:05;0.70;;;0.50;;
71600;SDS011;59446;52.192;4.628;2023-03-29T02:56:42;0.98;;;0.60;;
71600;SDS011;59446;52.192;4.628;2023-03-29T02:59:12;1.27;;;0.70;;
71600;SDS011;59446;52.192;4.628;2023-03-29T03:01:38;1.38;;;0.60;;
71600;SDS011;59446;52.192;4.628;2023-03-29T03:04:07;1.50;;;0.55;;
71600;SDS011;59446;52.192;4.628;2023-03-29T03:06:34;0.60;;;0.60;;
71600;SDS011;59446;52.192;4.628;2023-03-29T03:09:01;0.90;;;0.60;;
71600;SDS011;59446;52.192;4.628;2023-03-29T03:11:28;1.17;;;0.93;;
71600;SDS011;59446;52.192;4.628;2023-03-29T03:13:54;0.60;;;0.60;;
71600;SDS011;59446;52.192;4.628;2023-03-29T03:16:20;1.07;;;0.53;;
71600;SDS011;59446;52.192;4.628;2023-03-29T03:18:46;0.47;;;0.40;;
71600;SDS011;59446;52.192;4.628;2023-03-29T03:21:12;1.97;;;0.50;;
71600;SDS011;59446;52.192;4.628;2023-03-29T03:23:38;0.70;;;0.65;;
71600;SDS011;59446;52.192;4.628;2023-03-29T03:26:03;0.97;;;0.60;;
71600;SDS011;59446;52.192;4.628;2023-03-29T03:28:29;0.73;;;0.50;;
71600;SDS011;59446;52.192;4.628;2023-03-29T03:30:56;0.82;;;0.60;;
71600;SDS011;59446;52.192;4.628;2023-03-29T03:33:22;1.27;;;0.50;;
71600;SDS011;59446;52.192;4.628;2023-03-29T03:35:48;0.90;;;0.57;;
71600;SDS011;59446;52.192;4.628;2023-03-29T03:38:13;0.50;;;0.50;;
71600;SDS011;59446;52.192;4.628;2023-03-29T03:40:39;0.45;;;0.45;;
71600;SDS011;59446;52.192;4.628;2023-03-29T03:43:05;0.70;;;0.60;;
71600;SDS011;59446;52.192;4.628;2023-03-29T03:45:31;0.50;;;0.50;;
71600;SDS011;59446;52.192;4.628;2023-03-29T03:47:56;1.30;;;0.50;;
71600;SDS011;59446;52.192;4.628;2023-03-29T03:50:21;1.17;;;0.60;;
71600;SDS011;59446;52.192;4.628;2023-03-29T03:52:48;0.75;;;0.40;;
71600;SDS011;59446;52.192;4.628;2023-03-29T03:55:13;1.00;;;0.63;;
71600;SDS011;59446;52.192;4.628;2023-03-29T03:57:40;1.38;;;0.52;;
71600;SDS011;59446;52.192;4.628;2023-03-29T04:00:06;0.60;;;0.60;;
71600;SDS011;59446;52.192;4.628;2023-03-29T04:02:42;1.17;;;0.67;;
71600;SDS011;59446;52.192;4.628;2023-03-29T04:05:07;0.50;;;0.50;;
71600;SDS011;59446;52.192;4.628;2023-03-29T04:07:33;0.60;;;0.50;;
71600;SDS011;59446;52.192;4.628;2023-03-29T04:09:58;0.97;;;0.50;;
71600;SDS011;59446;52.192;4.628;2023-03-29T04:12:24;0.57;;;0.57;;
71600;SDS011;59446;52.192;4.628;2023-03-29T04:14:49;1.20;;;0.67;;
71600;SDS011;59446;52.192;4.628;2023-03-29T04:17:15;0.60;;;0.50;;
71600;SDS011;59446;52.192;4.628;2023-03-29T04:19:40;0.98;;;0.63;;
71600;SDS011;59446;52.192;4.628;2023-03-29T04:22:06;0.77;;;0.50;;
71600;SDS011;59446;52.192;4.628;2023-03-29T04:24:31;0.60;;;0.50;;
71600;SDS011;59446;52.192;4.628;2023-03-29T04:26:56;1.40;;;0.60;;
71600;SDS011;59446;52.192;4.628;2023-03-29T04:29:22;1.53;;;0.60;;
71600;SDS011;59446;52.192;4.628;2023-03-29T04:31:47;0.60;;;0.60;;
71600;SDS011;59446;52.192;4.628;2023-03-29T04:34:12;0.70;;;0.45;;
71600;SDS011;59446;52.192;4.628;2023-03-29T04:36:38;0.60;;;0.50;;
71600;SDS011;59446;52.192;4.628;2023-03-29T04:39:03;1.50;;;0.50;;
71600;SDS011;59446;52.192;4.628;2023-03-29T04:41:31;0.93;;;0.50;;
71600;SDS011;59446;52.192;4.628;2023-03-29T04:43:58;1.47;;;0.50;;
71600;SDS011;59446;52.192;4.628;2023-03-29T04:46:23;0.87;;;0.50;;
71600;SDS011;59446;52.192;4.628;2023-03-29T04:48:51;0.75;;;0.47;;
71600;SDS011;59446;52.192;4.628;2023-03-29T04:51:17;1.20;;;0.60;;
71600;SDS011;59446;52.192;4.628;2023-03-29T04:53:44;0.90;;;0.57;;
71600;SDS011;59446;52.192;4.628;2023-03-29T04:56:09;0.80;;;0.50;;
71600;SDS011;59446;52.192;4.628;2023-03-29T04:58:35;0.90;;;0.60;;
71600;SDS011;59446;52.192;4.628;2023-03-29T05:01:00;0.90;;;0.60;;
71600;SDS011;59446;52.192;4.628;2023-03-29T05:03:25;0.50;;;0.50;;
71600;SDS011;59446;52.192;4.628;2023-03-29T05:05:51;0.70;;;0.52;;
71600;SDS011;59446;52.192;4.628;2023-03-29T05:08:16;0.67;;;0.50;;
71600;SDS011;59446;52.192;4.628;2023-03-29T05:10:42;0.70;;;0.70;;
71600;SDS011;59446;52.192;4.628;2023-03-29T05:13:09;0.40;;;0.40;;
71600;SDS011;59446;52.192;4.628;2023-03-29T05:15:35;0.95;;;0.55;;
71600;SDS011;59446;52.192;4.628;2023-03-29T05:18:01;0.70;;;0.60;;
71600;SDS011;59446;52.192;4.628;2023-03-29T05:20:26;0.60;;;0.50;;
71600;SDS011;59446;52.192;4.628;2023-03-29T05:22:53;1.40;;;0.70;;
71600;SDS011;59446;52.192;4.628;2023-03-29T05:25:19;0.95;;;0.60;;
71600;SDS011;59446;52.192;4.628;2023-03-29T05:27:45;1.23;;;0.70;;
71600;SDS011;59446;52.192;4.628;2023-03-29T05:30:11;0.40;;;0.40;;
71600;SDS011;59446;52.192;4.628;2023-03-29T05:32:39;0.52;;;0.40;;
71600;SDS011;59446;52.192;4.628;2023-03-29T05:35:05;1.77;;;0.57;;
71600;SDS011;59446;52.192;4.628;2023-03-29T05:37:31;0.50;;;0.50;;
71600;SDS011;59446;52.192;4.628;2023-03-29T05:39:58;0.60;;;0.50;;
71600;SDS011;59446;52.192;4.628;2023-03-29T05:42:24;0.60;;;0.60;;
71600;SDS011;59446;52.192;4.628;2023-03-29T05:44:49;0.57;;;0.53;;
71600;SDS011;59446;52.192;4.628;2023-03-29T05:47:14;0.50;;;0.50;;
71600;SDS011;59446;52.192;4.628;2023-03-29T05:49:40;0.67;;;0.60;;
71600;SDS011;59446;52.192;4.628;2023-03-29T05:52:06;1.02;;;0.93;;
71600;SDS011;59446;52.192;4.628;2023-03-29T05:54:32;0.65;;;0.50;;
71600;SDS011;59446;52.192;4.628;2023-03-29T05:56:57;0.60;;;0.50;;
71600;SDS011;59446;52.192;4.628;2023-03-29T05:59:22;2.57;;;0.70;;
71600;SDS011;59446;52.192;4.628;2023-03-29T06:01:48;0.40;;;0.40;;
71600;SDS011;59446;52.192;4.628;2023-03-29T06:04:14;0.80;;;0.60;;
71600;SDS011;59446;52.192;4.628;2023-03-29T06:06:39;0.97;;;0.60;;
71600;SDS011;59446;52.192;4.628;2023-03-29T06:09:06;0.70;;;0.70;;
71600;SDS011;59446;52.192;4.628;2023-03-29T06:11:32;0.57;;;0.50;;
71600;SDS011;59446;52.192;4.628;2023-03-29T06:13:58;0.70;;;0.57;;
71600;SDS011;59446;52.192;4.628;2023-03-29T06:16:24;0.40;;;0.40;;
71600;SDS011;59446;52.192;4.628;2023-03-29T06:18:50;0.57;;;0.40;;
71600;SDS011;59446;52.192;4.628;2023-03-29T06:21:15;0.80;;;0.60;;
71600;SDS011;59446;52.192;4.628;2023-03-29T06:23:41;0.80;;;0.50;;
71600;SDS011;59446;52.192;4.628;2023-03-29T06:26:06;0.60;;;0.50;;
71600;SDS011;59446;52.192;4.628;2023-03-29T06:28:32;1.13;;;0.60;;
71600;SDS011;59446;52.192;4.628;2023-03-29T06:30:58;1.20;;;0.50;;
71600;SDS011;59446;52.192;4.628;2023-03-29T06:33:27;0.40;;;0.40;;
71600;SDS011;59446;52.192;4.628;2023-03-29T06:35:54;0.68;;;0.55;;
71600;SDS011;59446;52.192;4.628;2023-03-29T06:38:20;0.50;;;0.50;;
71600;SDS011;59446;52.192;4.628;2023-03-29T06:40:46;1.53;;;0.70;;
71600;SDS011;59446;52.192;4.628;2023-03-29T06:43:12;1.05;;;0.50;;
71600;SDS011;59446;52.192;4.628;2023-03-29T06:45:38;0.98;;;0.70;;
71600;SDS011;59446;52.192;4.628;2023-03-29T06:48:05;2.20;;;0.97;;
71600;SDS011;59446;52.192;4.628;2023-03-29T06:50:34;1.25;;;0.68;;
71600;SDS011;59446;52.192;4.628;2023-03-29T06:53:00;1.10;;;0.60;;
71600;SDS011;59446;52.192;4.628;2023-03-29T06:55:26;0.93;;;0.60;;
71600;SDS011;59446;52.192;4.628;2023-03-29T06:57:53;2.05;;;0.93;;
71600;SDS011;59446;52.192;4.628;2023-03-29T07:00:19;1.55;;;0.80;;
71600;SDS011;59446;52.192;4.628;2023-03-29T07:02:54;1.80;;;0.90;;
71600;SDS011;59446;52.192;4.628;2023-03-29T07:05:20;1.20;;;0.75;;
71600;SDS011;59446;52.192;4.628;2023-03-29T07:07:46;4.23;;;1.27;;
71600;SDS011;59446;52.192;4.628;2023-03-29T07:10:23;2.28;;;0.82;;
71600;SDS011;59446;52.192;4.628;2023-03-29T07:12:56;2.20;;;1.10;;
71600;SDS011;59446;52.192;4.628;2023-03-29T07:15:23;2.87;;;0.80;;
71600;SDS011;59446;52.192;4.628;2023-03-29T07:17:49;2.28;;;1.00;;
71600;SDS011;59446;52.192;4.628;2023-03-29T07:20:14;3.00;;;1.00;;
71600;SDS011;59446;52.192;4.628;2023-03-29T07:22:40;1.45;;;0.85;;
71600;SDS011;59446;52.192;4.628;2023-03-29T07:25:08;1.07;;;0.80;;
71600;SDS011;59446;52.192;4.628;2023-03-29T07:27:35;1.75;;;0.77;;
71600;SDS011;59446;52.192;4.628;2023-03-29T07:30:01;1.45;;;0.70;;
71600;SDS011;59446;52.192;4.628;2023-03-29T07:32:28;1.03;;;0.77;;
71600;SDS011;59446;52.192;4.628;2023-03-29T07:34:54;1.65;;;0.70;;
71600;SDS011;59446;52.192;4.628;2023-03-29T07:37:20;1.00;;;0.60;;
71600;SDS011;59446;52.192;4.628;2023-03-29T07:39:46;2.42;;;0.90;;
71600;SDS011;59446;52.192;4.628;2023-03-29T07:42:11;1.63;;;0.90;;
71600;SDS011;59446;52.192;4.628;2023-03-29T07:44:37;1.57;;;0.73;;
71600;SDS011;59446;52.192;4.628;2023-03-29T07:47:02;1.30;;;0.82;;
71600;SDS011;59446;52.192;4.628;2023-03-29T07:49:29;2.70;;;0.60;;
71600;SDS011;59446;52.192;4.628;2023-03-29T07:51:55;1.70;;;0.70;;
71600;SDS011;59446;52.192;4.628;2023-03-29T07:54:20;1.10;;;1.00;;
71600;SDS011;59446;52.192;4.628;2023-03-29T07:56:46;1.93;;;0.80;;
71600;SDS011;59446;52.192;4.628;2023-03-29T07:59:11;0.88;;;0.60;;
71600;SDS011;59446;52.192;4.628;2023-03-29T08:01:37;1.00;;;0.73;;
71600;SDS011;59446;52.192;4.628;2023-03-29T08:04:04;1.02;;;0.70;;
71600;SDS011;59446;52.192;4.628;2023-03-29T08:06:31;2.72;;;0.80;;
71600;SDS011;59446;52.192;4.628;2023-03-29T08:08:57;1.80;;;1.00;;
71600;SDS011;59446;52.192;4.628;2023-03-29T08:11:24;1.23;;;0.60;;
71600;SDS011;59446;52.192;4.628;2023-03-29T08:13:49;1.33;;;0.65;;
71600;SDS011;59446;52.192;4.628;2023-03-29T08:16:16;0.87;;;0.50;;
71600;SDS011;59446;52.192;4.628;2023-03-29T08:18:42;1.30;;;0.75;;
71600;SDS011;59446;52.192;4.628;2023-03-29T08:21:08;1.37;;;0.83;;
71600;SDS011;59446;52.192;4.628;2023-03-29T08:23:33;1.42;;;0.70;;
71600;SDS011;59446;52.192;4.628;2023-03-29T08:25:59;0.75;;;0.68;;
71600;SDS011;59446;52.192;4.628;2023-03-29T08:28:25;1.33;;;0.63;;
71600;SDS011;59446;52.192;4.628;2023-03-29T08:30:50;3.27;;;0.87;;
71600;SDS011;59446;52.192;4.628;2023-03-29T08:33:16;1.95;;;1.00;;
71600;SDS011;59446;52.192;4.628;2023-03-29T08:35:42;1.47;;;0.90;;
71600;SDS011;59446;52.192;4.628;2023-03-29T08:38:07;1.07;;;0.73;;
71600;SDS011;59446;52.192;4.628;2023-03-29T08:40:32;0.98;;;0.75;;
71600;SDS011;59446;52.192;4.628;2023-03-29T08:51:04;1.25;;;0.63;;
71600;SDS011;59446;52.192;4.628;2023-03-29T08:53:42;0.80;;;0.70;;
71600;SDS011;59446;52.192;4.628;2023-03-29T08:56:14;1.98;;;0.80;;
71600;SDS011;59446;52.192;4.628;2023-03-29T08:58:44;1.10;;;0.70;;
71600;SDS011;59446;52.192;4.628;2023-03-29T09:01:12;1.77;;;0.88;;
71600;SDS011;59446;52.192;4.628;2023-03-29T09:03:39;0.88;;;0.50;;
71600;SDS011;59446;52.192;4.628;2023-03-29T09:06:10;0.60;;;0.50;;
71600;SDS011;59446;52.192;4.628;2023-03-29T09:08:44;1.85;;;0.70;;
71600;SDS011;59446;52.192;4.628;2023-03-29T09:16:32;1.20;;;0.70;;
71600;SDS011;59446;52.192;4.628;2023-03-29T09:19:48;0.82;;;0.60;;
71600;SDS011;59446;52.192;4.628;2023-03-29T09:25:20;1.27;;;0.77;;
71600;SDS011;59446;52.192;4.628;2023-03-29T09:27:57;0.55;;;0.55;;
71600;SDS011;59446;52.192;4.628;2023-03-29T09:30:41;2.55;;;0.98;;
71600;SDS011;59446;52.192;4.628;2023-03-29T09:33:21;2.73;;;0.63;;
71600;SDS011;59446;52.192;4.628;2023-03-29T09:35:53;1.80;;;0.60;;
71600;SDS011;59446;52.192;4.628;2023-03-29T09:38:26;1.48;;;0.65;;
71600;SDS011;59446;52.192;4.628;2023-03-29T09:40:54;1.03;;;0.50;;
71600;SDS011;59446;52.192;4.628;2023-03-29T09:43:30;1.50;;;0.70;;
71600;SDS011;59446;52.192;4.628;2023-03-29T09:46:03;1.15;;;0.60;;
71600;SDS011;59446;52.192;4.628;2023-03-29T09:48:36;0.63;;;0.52;;
71600;SDS011;59446;52.192;4.628;2023-03-29T09:51:05;0.73;;;0.60;;
71600;SDS011;59446;52.192;4.628;2023-03-29T09:53:32;0.98;;;0.70;;
71600;SDS011;59446;52.192;4.628;2023-03-29T09:55:58;0.80;;;0.70;;
71600;SDS011;59446;52.192;4.628;2023-03-29T09:58:27;1.48;;;0.63;;
71600;SDS011;59446;52.192;4.628;2023-03-29T10:00:59;0.70;;;0.60;;
71600;SDS011;59446;52.192;4.628;2023-03-29T10:03:27;1.00;;;0.60;;
71600;SDS011;59446;52.192;4.628;2023-03-29T10:05:54;1.65;;;0.70;;
71600;SDS011;59446;52.192;4.628;2023-03-29T10:08:26;1.08;;;0.60;;
71600;SDS011;59446;52.192;4.628;2023-03-29T10:10:57;1.80;;;0.87;;
71600;SDS011;59446;52.192;4.628;2023-03-29T10:13:28;1.02;;;0.88;;
71600;SDS011;59446;52.192;4.628;2023-03-29T10:16:06;1.58;;;0.80;;
71600;SDS011;59446;52.192;4.628;2023-03-29T10:18:38;1.30;;;0.77;;
71600;SDS011;59446;52.192;4.628;2023-03-29T10:21:05;1.30;;;0.70;;
71600;SDS011;59446;52.192;4.628;2023-03-29T10:23:32;2.67;;;1.17;;
71600;SDS011;59446;52.192;4.628;2023-03-29T10:26:00;2.10;;;0.88;;
71600;SDS011;59446;52.192;4.628;2023-03-29T10:28:28;0.80;;;0.70;;
71600;SDS011;59446;52.192;4.628;2023-03-29T10:30:56;1.83;;;0.80;;
71600;SDS011;59446;52.192;4.628;2023-03-29T10:33:23;2.35;;;1.02;;
71600;SDS011;59446;52.192;4.628;2023-03-29T10:35:54;1.97;;;1.20;;
71600;SDS011;59446;52.192;4.628;2023-03-29T10:38:22;2.63;;;0.80;;
71600;SDS011;59446;52.192;4.628;2023-03-29T10:40:52;1.05;;;0.70;;
71600;SDS011;59446;52.192;4.628;2023-03-29T10:45:47;2.53;;;0.90;;
71600;SDS011;59446;52.192;4.628;2023-03-29T10:48:14;1.85;;;1.08;;
71600;SDS011;59446;52.192;4.628;2023-03-29T10:50:41;1.25;;;0.77;;
71600;SDS011;59446;52.192;4.628;2023-03-29T10:53:22;1.47;;;0.80;;
71600;SDS011;59446;52.192;4.628;2023-03-29T11:04:17;1.38;;;0.90;;
71600;SDS011;59446;52.192;4.628;2023-03-29T11:09:19;1.57;;;0.90;;
71600;SDS011;59446;52.192;4.628;2023-03-29T11:12:01;2.45;;;1.20;;
71600;SDS011;59446;52.192;4.628;2023-03-29T11:14:58;3.00;;;1.20;;
71600;SDS011;59446;52.192;4.628;2023-03-29T11:23:25;2.47;;;1.05;;
71600;SDS011;59446;52.192;4.628;2023-03-29T11:28:49;5.50;;;1.30;;
71600;SDS011;59446;52.192;4.628;2023-03-29T11:36:59;2.90;;;1.20;;
71600;SDS011;59446;52.192;4.628;2023-03-29T11:42:08;2.25;;;1.00;;
71600;SDS011;59446;52.192;4.628;2023-03-29T11:44:40;3.78;;;1.30;;
71600;SDS011;59446;52.192;4.628;2023-03-29T11:47:09;3.00;;;1.43;;
71600;SDS011;59446;52.192;4.628;2023-03-29T11:49:41;2.10;;;1.20;;
71600;SDS011;59446;52.192;4.628;2023-03-29T11:54:59;2.07;;;1.00;;
71600;SDS011;59446;52.192;4.628;2023-03-29T11:57:39;3.40;;;1.17;;
71600;SDS011;59446;52.192;4.628;2023-03-29T12:05:38;3.55;;;1.25;;
71600;SDS011;59446;52.192;4.628;2023-03-29T12:08:09;3.97;;;1.42;;
71600;SDS011;59446;52.192;4.628;2023-03-29T12:10:44;3.28;;;1.58;;
71600;SDS011;59446;52.192;4.628;2023-03-29T12:16:35;5.43;;;1.70;;
71600;SDS011;59446;52.192;4.628;2023-03-29T12:18:41;2.53;;;1.10;;
71600;SDS011;59446;52.192;4.628;2023-03-29T12:21:14;2.17;;;0.97;;
71600;SDS011;59446;52.192;4.628;2023-03-29T12:23:44;2.85;;;1.40;;
71600;SDS011;59446;52.192;4.628;2023-03-29T12:31:37;1.85;;;1.08;;
71600;SDS011;59446;52.192;4.628;2023-03-29T12:34:13;4.28;;;1.60;;
71600;SDS011;59446;52.192;4.628;2023-03-29T12:39:16;3.30;;;1.40;;
71600;SDS011;59446;52.192;4.628;2023-03-29T12:41:44;1.50;;;0.80;;
71600;SDS011;59446;52.192;4.628;2023-03-29T12:44:15;1.95;;;1.02;;
71600;SDS011;59446;52.192;4.628;2023-03-29T12:46:44;2.37;;;0.90;;
71600;SDS011;59446;52.192;4.628;2023-03-29T12:49:12;3.60;;;1.08;;
71600;SDS011;59446;52.192;4.628;2023-03-29T12:51:47;2.95;;;1.33;;
71600;SDS011;59446;52.192;4.628;2023-03-29T12:54:14;2.70;;;1.20;;
71600;SDS011;59446;52.192;4.628;2023-03-29T13:07:14;3.37;;;1.23;;
71600;SDS011;59446;52.192;4.628;2023-03-29T13:12:27;1.50;;;0.98;;
71600;SDS011;59446;52.192;4.628;2023-03-29T13:14:54;2.63;;;1.23;;
71600;SDS011;59446;52.192;4.628;2023-03-29T13:17:26;2.20;;;1.00;;
71600;SDS011;59446;52.192;4.628;2023-03-29T13:20:13;2.67;;;1.10;;
71600;SDS011;59446;52.192;4.628;2023-03-29T13:26:10;2.33;;;1.00;;
71600;SDS011;59446;52.192;4.628;2023-03-29T13:34:19;2.63;;;1.23;;
71600;SDS011;59446;52.192;4.628;2023-03-29T13:37:00;2.43;;;1.20;;
71600;SDS011;59446;52.192;4.628;2023-03-29T13:39:50;3.35;;;1.50;;
71600;SDS011;59446;52.192;4.628;2023-03-29T13:42:24;3.03;;;0.98;;
71600;SDS011;59446;52.192;4.628;2023-03-29T13:45:04;2.90;;;1.23;;
71600;SDS011;59446;52.192;4.628;2023-03-29T13:47:59;2.30;;;1.35;;
71600;SDS011;59446;52.192;4.628;2023-03-29T13:50:33;3.80;;;1.10;;
71600;SDS011;59446;52.192;4.628;2023-03-29T13:53:22;4.40;;;1.40;;
71600;SDS011;59446;52.192;4.628;2023-03-29T13:55:54;2.50;;;1.25;;
71600;SDS011;59446;52.192;4.628;2023-03-29T13:58:33;3.00;;;1.30;;
71600;SDS011;59446;52.192;4.628;2023-03-29T14:01:13;3.30;;;1.33;;
71600;SDS011;59446;52.192;4.628;2023-03-29T14:03:47;2.13;;;1.20;;
71600;SDS011;59446;52.192;4.628;2023-03-29T14:06:16;3.20;;;1.08;;
71600;SDS011;59446;52.192;4.628;2023-03-29T14:08:49;3.35;;;1.30;;
71600;SDS011;59446;52.192;4.628;2023-03-29T14:11:20;2.60;;;1.10;;
71600;SDS011;59446;52.192;4.628;2023-03-29T14:13:52;2.70;;;1.40;;
71600;SDS011;59446;52.192;4.628;2023-03-29T14:16:19;3.92;;;1.23;;
71600;SDS011;59446;52.192;4.628;2023-03-29T14:18:45;2.10;;;1.00;;
71600;SDS011;59446;52.192;4.628;2023-03-29T14:21:15;2.72;;;1.25;;
71600;SDS011;59446;52.192;4.628;2023-03-29T14:23:43;3.17;;;1.50;;
71600;SDS011;59446;52.192;4.628;2023-03-29T14:28:44;2.67;;;1.43;;
71600;SDS011;59446;52.192;4.628;2023-03-29T14:31:21;3.28;;;1.45;;
71600;SDS011;59446;52.192;4.628;2023-03-29T14:33:56;6.15;;;1.98;;
71600;SDS011;59446;52.192;4.628;2023-03-29T14:36:23;2.20;;;1.10;;
71600;SDS011;59446;52.192;4.628;2023-03-29T14:38:57;2.80;;;1.30;;
71600;SDS011;59446;52.192;4.628;2023-03-29T14:41:30;3.80;;;1.23;;
71600;SDS011;59446;52.192;4.628;2023-03-29T14:43:57;2.30;;;1.30;;
71600;SDS011;59446;52.192;4.628;2023-03-29T14:46:24;4.38;;;1.10;;
71600;SDS011;59446;52.192;4.628;2023-03-29T14:48:51;2.90;;;1.20;;
71600;SDS011;59446;52.192;4.628;2023-03-29T14:51:17;1.80;;;1.20;;
71600;SDS011;59446;52.192;4.628;2023-03-29T14:53:44;2.23;;;1.10;;
71600;SDS011;59446;52.192;4.628;2023-03-29T14:56:10;15.68;;;1.70;;
71600;SDS011;59446;52.192;4.628;2023-03-29T14:58:43;2.60;;;1.50;;
71600;SDS011;59446;52.192;4.628;2023-03-29T15:01:16;2.73;;;1.00;;
71600;SDS011;59446;52.192;4.628;2023-03-29T15:04:08;1.98;;;1.10;;
71600;SDS011;59446;52.192;4.628;2023-03-29T15:06:37;2.90;;;1.42;;
71600;SDS011;59446;52.192;4.628;2023-03-29T15:09:06;2.20;;;1.20;;
71600;SDS011;59446;52.192;4.628;2023-03-29T15:11:38;3.45;;;1.35;;
71600;SDS011;59446;52.192;4.628;2023-03-29T15:14:05;5.55;;;1.00;;
71600;SDS011;59446;52.192;4.628;2023-03-29T15:16:33;2.97;;;1.40;;
71600;SDS011;59446;52.192;4.628;2023-03-29T15:19:04;2.10;;;1.40;;
71600;SDS011;59446;52.192;4.628;2023-03-29T15:21:31;2.05;;;1.05;;
71600;SDS011;59446;52.192;4.628;2023-03-29T15:23:58;3.15;;;1.27;;
71600;SDS011;59446;52.192;4.628;2023-03-29T15:26:30;2.83;;;1.20;;
71600;SDS011;59446;52.192;4.628;2023-03-29T15:29:06;3.85;;;1.20;;
71600;SDS011;59446;52.192;4.628;2023-03-29T15:31:39;1.88;;;0.98;;
71600;SDS011;59446;52.192;4.628;2023-03-29T15:36:42;1.58;;;1.08;;
71600;SDS011;59446;52.192;4.628;2023-03-29T15:39:13;2.45;;;0.90;;
71600;SDS011;59446;52.192;4.628;2023-03-29T15:41:41;2.22;;;1.00;;
71600;SDS011;59446;52.192;4.628;2023-03-29T15:44:07;3.00;;;1.13;;
71600;SDS011;59446;52.192;4.628;2023-03-29T15:46:33;6.55;;;1.60;;
71600;SDS011;59446;52.192;4.628;2023-03-29T15:48:59;1.90;;;1.00;;
71600;SDS011;59446;52.192;4.628;2023-03-29T15:51:24;1.65;;;1.02;;
71600;SDS011;59446;52.192;4.628;2023-03-29T15:53:50;1.97;;;0.97;;
71600;SDS011;59446;52.192;4.628;2023-03-29T15:56:16;1.80;;;0.87;;
71600;SDS011;59446;52.192;4.628;2023-03-29T15:58:44;1.25;;;0.85;;
71600;SDS011;59446;52.192;4.628;2023-03-29T16:01:33;2.63;;;1.40;;
71600;SDS011;59446;52.192;4.628;2023-03-29T16:04:04;3.25;;;1.20;;
71600;SDS011;59446;52.192;4.628;2023-03-29T16:06:31;2.28;;;1.20;;
71600;SDS011;59446;52.192;4.628;2023-03-29T16:08:57;2.47;;;1.23;;
71600;SDS011;59446;52.192;4.628;2023-03-29T16:11:23;1.87;;;1.07;;
71600;SDS011;59446;52.192;4.628;2023-03-29T16:13:49;2.20;;;1.20;;
71600;SDS011;59446;52.192;4.628;2023-03-29T16:16:14;3.58;;;1.50;;
71600;SDS011;59446;52.192;4.628;2023-03-29T16:18:40;3.17;;;1.13;;
71600;SDS011;59446;52.192;4.628;2023-03-29T16:21:08;1.57;;;0.90;;
71600;SDS011;59446;52.192;4.628;2023-03-29T16:23:37;2.45;;;1.02;;
71600;SDS011;59446;52.192;4.628;2023-03-29T16:26:03;3.00;;;1.20;;
71600;SDS011;59446;52.192;4.628;2023-03-29T16:28:28;1.63;;;1.00;;
71600;SDS011;59446;52.192;4.628;2023-03-29T16:30:54;3.20;;;1.30;;
71600;SDS011;59446;52.192;4.628;2023-03-29T16:33:19;2.13;;;0.93;;
71600;SDS011;59446;52.192;4.628;2023-03-29T16:35:44;2.47;;;1.20;;
71600;SDS011;59446;52.192;4.628;2023-03-29T16:38:10;2.47;;;1.23;;
71600;SDS011;59446;52.192;4.628;2023-03-29T16:40:35;1.07;;;0.70;;
71600;SDS011;59446;52.192;4.628;2023-03-29T16:43:01;2.70;;;1.10;;
71600;SDS011;59446;52.192;4.628;2023-03-29T16:45:27;5.30;;;0.93;;
71600;SDS011;59446;52.192;4.628;2023-03-29T16:47:52;1.80;;;0.83;;
71600;SDS011;59446;52.192;4.628;2023-03-29T16:50:19;2.25;;;1.10;;